Time;durP1;ratioP1;P1;durP2;ratioP2;P2;SDS_P1;SDS_P2;PMS_P1;PMS_P2;Temp;Humidity;BMP_temperature;BMP_pressure;BME280_temperature;BME280_humidity;BME280_pressure;Samples;Min_cycle;Max_cycle;Signal;HPM_P1;HPM_P2
2022/09/19 00:01:15;;;;;;;7.15;1.45;;;;;;;10.53;83.93;101840.59;5024993;28;20091;-73
2022/09/19 00:03:43;;;;;;;10.07;1.30;;;;;;;10.49;83.68;101836.97;5025231;28;20032;-73
2022/09/19 00:06:10;;;;;;;9.65;1.83;;;;;;;10.44;83.59;101835.94;5025324;28;20037;-73
2022/09/19 00:08:38;;;;;;;8.15;1.80;;;;;;;10.45;83.51;101832.53;5025147;28;20113;-73
2022/09/19 00:11:06;;;;;;;9.88;1.50;;;;;;;10.45;83.94;101845.41;5025010;28;20045;-73
2022/09/19 00:13:33;;;;;;;7.68;1.48;;;;;;;10.42;83.42;101842.69;5025386;28;20057;-73
2022/09/19 00:15:59;;;;;;;9.73;1.40;;;;;;;10.41;83.47;101839.22;5025155;28;20151;-73
2022/09/19 00:18:26;;;;;;;11.50;1.55;;;;;;;10.39;83.37;101830.56;5022740;28;20029;-73
2022/09/19 00:20:52;;;;;;;11.32;1.77;;;;;;;10.38;83.08;101833.09;5022389;28;20144;-73
2022/09/19 00:26:07;;;;;;;7.97;1.65;;;;;;;10.35;83.77;101835.50;5025167;28;20099;-73
2022/09/19 00:28:34;;;;;;;10.48;1.40;;;;;;;10.37;83.76;101833.88;5023561;28;20029;-73
2022/09/19 00:31:00;;;;;;;9.45;1.27;;;;;;;10.32;83.79;101841.41;5021479;28;20029;-73
2022/09/19 00:33:30;;;;;;;11.73;1.80;;;;;;;10.34;83.73;101846.59;5025743;28;20025;-73
2022/09/19 00:36:00;;;;;;;8.00;1.38;;;;;;;10.30;83.86;101837.88;5025145;28;20018;-73
2022/09/19 00:38:27;;;;;;;9.70;1.50;;;;;;;10.33;83.35;101840.59;5020478;28;20029;-73
2022/09/19 00:40:53;;;;;;;8.93;1.42;;;;;;;10.34;83.56;101844.91;5025377;28;20041;-73
2022/09/19 00:43:20;;;;;;;8.90;1.45;;;;;;;10.27;83.56;101840.31;5003411;28;20047;-73
2022/09/19 00:45:46;;;;;;;10.77;1.42;;;;;;;10.33;84.05;101843.16;5029046;28;20037;-73
2022/09/19 00:48:14;;;;;;;7.68;1.80;;;;;;;10.38;83.98;101843.38;5023112;28;20025;-73
2022/09/19 00:50:44;;;;;;;10.15;1.42;;;;;;;10.35;83.90;101838.06;5021351;28;20041;-73
2022/09/19 00:53:13;;;;;;;10.07;1.40;;;;;;;10.35;83.73;101843.22;5021994;28;20045;-73
2022/09/19 00:55:39;;;;;;;;;;;;;;;10.56;83.05;101841.63;5025409;28;20109;-73
2022/09/19 00:58:34;;;;;;;7.30;1.48;;;;;;;10.46;83.92;101839.44;5024916;28;19913;-73
2022/09/19 01:01:00;;;;;;;7.63;1.30;;;;;;;10.33;83.76;101844.84;5022751;28;20033;-73
2022/09/19 01:03:27;;;;;;;7.53;1.25;;;;;;;10.26;84.19;101847.97;5023414;28;20033;-73
2022/09/19 01:05:59;;;;;;;9.43;1.45;;;;;;;10.24;84.53;101857.28;4991118;28;20033;-73
2022/09/19 01:08:44;;;;;;;6.50;1.27;;;;;;;10.31;84.05;101860.19;5023924;28;20024;-73
2022/09/19 01:11:24;;;;;;;10.60;1.48;;;;;;;10.33;84.53;101861.16;5019529;28;20060;-73
2022/09/19 01:14:08;;;;;;;8.38;1.50;;;;;;;10.35;83.94;101864.66;5024162;28;20039;-73
2022/09/19 01:16:44;;;;;;;7.65;1.30;;;;;;;10.28;83.81;101867.78;5022440;28;20029;-73
2022/09/19 01:19:58;;;;;;;12.73;1.90;;;;;;;10.34;83.48;101864.59;5007902;28;20024;-73
2022/09/19 01:22:55;;;;;;;8.32;1.50;;;;;;;10.30;83.39;101862.69;5015344;28;20496;-73
2022/09/19 01:25:45;;;;;;;9.77;1.65;;;;;;;10.32;83.83;101866.25;5022058;28;20139;-73
2022/09/19 01:28:20;;;;;;;12.10;1.75;;;;;;;10.26;83.75;101871.09;5022222;28;20034;-73
2022/09/19 01:31:21;;;;;;;12.05;1.30;;;;;;;10.25;83.93;101869.31;5021050;28;20380;-73
2022/09/19 01:34:09;;;;;;;8.40;1.30;;;;;;;10.27;84.09;101868.59;5022492;28;20037;-73
2022/09/19 01:36:43;;;;;;;6.60;1.35;;;;;;;10.20;84.56;101874.25;5022391;28;20312;-73
2022/09/19 01:39:11;;;;;;;9.13;1.30;;;;;;;10.26;84.89;101869.41;5022520;28;20029;-73
2022/09/19 01:41:36;;;;;;;8.63;1.23;;;;;;;10.21;85.07;101871.72;5005267;28;20034;-74
2022/09/19 01:44:08;;;;;;;7.35;1.40;;;;;;;10.25;85.46;101869.31;5002952;28;20026;-73
2022/09/19 01:46:52;;;;;;;7.68;1.50;;;;;;;10.24;85.85;101872.69;5003837;28;20032;-73
2022/09/19 01:49:49;;;;;;;9.65;1.20;;;;;;;10.31;86.40;101879.88;5001278;28;20053;-73
2022/09/19 01:52:29;;;;;;;11.55;1.50;;;;;;;10.30;86.51;101876.44;5023033;28;20056;-73
2022/09/19 01:55:33;;;;;;;8.57;1.73;;;;;;;10.34;86.55;101869.75;5020876;28;20025;-73
2022/09/19 01:58:40;;;;;;;11.20;1.30;;;;;;;10.39;86.30;101871.72;4990584;28;20124;-73
2022/09/19 02:01:16;;;;;;;9.52;1.23;;;;;;;10.38;86.03;101877.69;5023004;28;20503;-73
2022/09/19 02:04:01;;;;;;;12.55;1.33;;;;;;;10.42;85.69;101874.41;5024785;28;20400;-73
2022/09/19 02:06:43;;;;;;;8.10;1.65;;;;;;;10.33;85.99;101868.88;5019935;28;21125;-73
2022/09/19 02:09:45;;;;;;;7.07;1.20;;;;;;;10.41;85.22;101882.06;5024043;28;20080;-73
2022/09/19 02:12:16;;;;;;;10.75;1.10;;;;;;;10.25;84.87;101874.47;4979624;28;20046;-73
2022/09/19 02:14:50;;;;;;;6.97;1.30;;;;;;;10.25;85.26;101877.91;5022435;28;20029;-73
2022/09/19 02:17:23;;;;;;;13.23;1.50;;;;;;;10.19;85.43;101880.16;5004203;28;20080;-73
2022/09/19 02:19:54;;;;;;;9.70;1.45;;;;;;;10.21;85.59;101876.00;5000049;28;20041;-73
2022/09/19 02:22:31;;;;;;;7.93;1.20;;;;;;;10.21;85.49;101879.44;5023461;28;20033;-73
2022/09/19 02:25:00;;;;;;;10.38;1.38;;;;;;;10.16;85.15;101886.06;5024754;28;20029;-73
2022/09/19 02:27:35;;;;;;;9.00;1.45;;;;;;;10.13;85.03;101890.16;5021518;28;20397;-73
2022/09/19 02:30:05;;;;;;;10.63;1.58;;;;;;;10.15;84.77;101888.56;5023304;28;20022;-73
2022/09/19 02:32:31;;;;;;;11.23;1.55;;;;;;;10.06;84.67;101890.69;5022139;28;20025;-73
2022/09/19 02:34:59;;;;;;;9.00;1.42;;;;;;;10.09;84.58;101891.72;5024917;28;20025;-72
2022/09/19 02:37:30;;;;;;;13.32;1.58;;;;;;;10.14;84.65;101897.97;5021731;28;20029;-73
2022/09/19 02:40:01;;;;;;;11.48;1.70;;;;;;;10.13;84.56;101896.22;5021948;28;20048;-73
2022/09/19 02:42:43;;;;;;;6.97;1.20;;;;;;;10.13;84.28;101892.72;5019791;28;20033;-73
2022/09/19 02:45:14;;;;;;;6.95;1.30;;;;;;;10.11;84.25;101897.81;5023174;28;20071;-73
2022/09/19 02:47:52;;;;;;;8.75;1.17;;;;;;;10.04;84.62;101893.19;5022133;28;20080;-73
2022/09/19 02:50:35;;;;;;;11.13;1.40;;;;;;;10.06;84.38;101888.13;5022702;28;20034;-73
2022/09/19 02:53:05;;;;;;;9.45;1.35;;;;;;;9.94;84.76;101901.28;5019470;28;20104;-73
2022/09/19 02:55:39;;;;;;;5.13;1.48;;;;;;;9.97;84.63;101898.88;5022195;28;20029;-73
2022/09/19 02:58:06;;;;;;;6.00;1.20;;;;;;;9.96;84.50;101901.38;5022795;28;20095;-73
2022/09/19 03:00:34;;;;;;;8.68;1.60;;;;;;;9.90;84.58;101900.28;5022073;28;20034;-73
2022/09/19 03:05:56;;;;;;;9.57;1.33;;;;;;;9.85;84.57;101900.84;5025000;28;20044;-73
2022/09/19 03:08:24;;;;;;;11.80;1.48;;;;;;;9.85;84.61;101898.28;5007215;28;20464;-73
2022/09/19 03:10:54;;;;;;;10.18;1.38;;;;;;;9.80;84.71;101903.19;5024175;28;20021;-74
2022/09/19 03:13:24;;;;;;;10.13;1.67;;;;;;;9.82;84.78;101904.16;5024665;28;20029;-73
2022/09/19 03:15:56;;;;;;;8.52;1.40;;;;;;;9.84;85.04;101905.13;5026954;28;20030;-73
2022/09/19 03:18:24;;;;;;;11.38;1.83;;;;;;;9.84;85.51;101902.56;5024349;28;20117;-73
2022/09/19 03:20:54;;;;;;;10.38;1.60;;;;;;;9.84;85.65;101906.81;5019403;28;20485;-73
2022/09/19 03:23:26;;;;;;;11.20;1.27;;;;;;;9.81;85.88;101906.66;5024264;28;20083;-72
2022/09/19 03:25:51;;;;;;;8.65;1.52;;;;;;;9.76;85.84;101906.41;5024140;28;20091;-73
2022/09/19 03:28:19;;;;;;;9.07;1.40;;;;;;;9.74;85.86;101905.47;5008052;28;20487;-73
2022/09/19 03:30:45;;;;;;;7.15;1.42;;;;;;;9.77;86.14;101904.72;5022102;28;20092;-73
2022/09/19 03:33:15;;;;;;;7.90;1.80;;;;;;;9.78;85.95;101902.25;5025739;28;20021;-73
2022/09/19 03:35:40;;;;;;;14.75;1.95;;;;;;;9.83;86.06;101903.38;5023418;28;20064;-73
2022/09/19 03:38:06;;;;;;;7.90;1.65;;;;;;;9.80;85.78;101905.78;5026307;28;20064;-73
2022/09/19 03:40:32;;;;;;;8.93;1.40;;;;;;;9.87;85.93;101906.94;5024067;28;20060;-73
2022/09/19 03:42:58;;;;;;;9.15;1.25;;;;;;;9.84;85.94;101901.66;5023793;28;21837;-73
2022/09/19 03:45:23;;;;;;;9.48;1.63;;;;;;;9.82;85.54;101903.25;5023361;28;20029;-74
2022/09/19 03:47:49;;;;;;;6.75;1.20;;;;;;;9.77;85.86;101904.72;5023357;28;20033;-74
2022/09/19 03:50:14;;;;;;;8.35;1.83;;;;;;;9.75;85.81;101903.78;5024388;28;20050;-73
2022/09/19 03:52:39;;;;;;;6.95;1.30;;;;;;;9.77;86.07;101913.34;5024449;28;20041;-74
2022/09/19 03:55:05;;;;;;;10.70;1.60;;;;;;;9.81;85.86;101911.78;5003178;28;20463;-74
2022/09/19 03:57:30;;;;;;;6.72;1.40;;;;;;;9.82;86.16;101918.69;5005220;28;20044;-73
2022/09/19 03:59:56;;;;;;;6.97;1.45;;;;;;;9.72;86.15;101888.25;4988948;28;20480;-74
2022/09/19 04:02:21;;;;;;;8.43;1.40;;;;;;;9.80;86.26;101905.78;5025831;28;20036;-74
2022/09/19 04:04:47;;;;;;;8.95;1.30;;;;;;;9.82;86.15;101911.84;5007724;28;20064;-74
2022/09/19 04:07:13;;;;;;;7.78;1.23;;;;;;;9.80;86.21;101921.19;5003732;28;20059;-73
2022/09/19 04:09:38;;;;;;;7.82;1.42;;;;;;;9.77;86.32;101917.56;5023579;28;20523;-74
2022/09/19 04:12:04;;;;;;;8.10;1.33;;;;;;;9.79;86.43;101922.00;5024339;28;20429;-74
2022/09/19 04:14:30;;;;;;;7.47;1.55;;;;;;;9.74;86.25;101923.47;5021828;28;20042;-74
2022/09/19 04:16:56;;;;;;;10.18;1.40;;;;;;;9.76;86.19;101924.41;5025534;28;20040;-74
2022/09/19 04:19:26;;;;;;;7.75;1.73;;;;;;;9.73;86.62;101921.69;5021307;28;20049;-74
2022/09/19 04:21:52;;;;;;;10.15;1.40;;;;;;;9.73;86.72;101928.53;5022280;28;20032;-74
2022/09/19 04:24:20;;;;;;;8.95;1.48;;;;;;;9.71;86.57;101925.91;5023024;28;20055;-74
2022/09/19 04:26:46;;;;;;;9.05;1.42;;;;;;;9.69;86.65;101927.50;5008495;28;20029;-74
2022/09/19 04:29:12;;;;;;;7.70;1.20;;;;;;;9.74;86.33;101935.41;5021259;28;20415;-74
2022/09/19 04:31:38;;;;;;;9.65;1.70;;;;;;;9.71;86.35;101932.69;4992149;28;20042;-74
2022/09/19 04:34:06;;;;;;;10.02;1.38;;;;;;;9.74;86.15;101935.41;5009102;28;20037;-73
2022/09/19 04:36:31;;;;;;;9.90;1.55;;;;;;;9.71;86.23;101935.25;5022545;28;20053;-74
2022/09/19 04:39:02;;;;;;;10.65;1.60;;;;;;;9.63;86.17;101935.78;5022874;28;20381;-74
2022/09/19 04:41:30;;;;;;;8.25;1.45;;;;;;;9.62;85.78;101934.00;5024333;28;20080;-74
2022/09/19 04:43:57;;;;;;;10.85;1.42;;;;;;;9.65;86.50;101934.19;5022426;28;20028;-74
2022/09/19 04:46:23;;;;;;;8.45;1.45;;;;;;;9.65;86.53;101941.88;5003298;28;20059;-74
2022/09/19 04:48:52;;;;;;;7.05;1.17;;;;;;;9.68;86.64;101933.44;5022812;28;20115;-73
2022/09/19 04:51:18;;;;;;;7.85;1.13;;;;;;;9.68;86.55;101942.00;5021829;28;20132;-74
2022/09/19 04:53:44;;;;;;;9.95;1.50;;;;;;;9.66;86.79;101946.22;5022001;28;20040;-74
2022/09/19 04:56:10;;;;;;;13.02;1.80;;;;;;;9.69;86.42;101948.03;5022951;28;20029;-73
2022/09/19 04:58:37;;;;;;;7.03;1.40;;;;;;;9.63;86.77;101958.88;5001314;28;20056;-74
2022/09/19 05:01:03;;;;;;;7.28;1.80;;;;;;;9.64;86.81;101952.94;5019146;28;20071;-74
2022/09/19 05:03:30;;;;;;;8.13;1.40;;;;;;;9.70;87.03;101948.91;5021541;28;20392;-74
2022/09/19 05:05:56;;;;;;;6.00;1.23;;;;;;;9.70;87.85;101952.34;5023237;28;20031;-74
2022/09/19 05:08:25;;;;;;;9.43;1.70;;;;;;;9.71;87.85;101953.22;5016324;28;21890;-74
2022/09/19 05:10:55;;;;;;;8.32;1.58;;;;;;;9.68;88.09;101951.41;5023679;28;20044;-74
2022/09/19 05:13:27;;;;;;;12.70;2.10;;;;;;;9.72;88.38;101957.59;5003739;28;20045;-74
2022/09/19 05:15:54;;;;;;;7.13;1.50;;;;;;;9.70;88.70;101960.06;5020724;28;20044;-74
2022/09/19 05:18:21;;;;;;;8.35;1.67;;;;;;;9.74;88.78;101964.56;5023245;28;20480;-74
2022/09/19 05:20:48;;;;;;;9.82;1.50;;;;;;;9.74;88.54;101961.97;5005399;28;20041;-74
2022/09/19 05:23:14;;;;;;;9.45;1.52;;;;;;;9.78;89.00;101958.78;5020974;28;20580;-74
2022/09/19 05:25:40;;;;;;;9.43;1.75;;;;;;;9.76;89.21;101956.91;5021106;28;20029;-74
2022/09/19 05:28:06;;;;;;;11.68;2.03;;;;;;;9.80;89.10;101963.97;5021741;28;20407;-74
2022/09/19 05:30:33;;;;;;;5.80;1.60;;;;;;;9.81;88.94;101968.28;5023523;28;20056;-74
2022/09/19 05:32:59;;;;;;;7.90;1.80;;;;;;;9.82;89.07;101975.19;5025043;28;20033;-73
2022/09/19 05:35:26;;;;;;;6.03;1.30;;;;;;;9.82;88.89;101973.50;5022661;28;20484;-74
2022/09/19 05:37:52;;;;;;;9.80;1.70;;;;;;;9.82;89.11;101976.06;5021913;28;20029;-74
2022/09/19 05:40:18;;;;;;;11.27;2.25;;;;;;;9.84;89.11;101981.31;5023624;28;20044;-74
2022/09/19 05:42:46;;;;;;;9.80;2.20;;;;;;;9.87;89.02;101984.88;5022125;28;20036;-74
2022/09/19 05:45:12;;;;;;;9.45;1.77;;;;;;;9.88;89.21;101981.50;5024878;28;20037;-74
2022/09/19 05:47:39;;;;;;;10.13;2.03;;;;;;;9.87;89.42;101984.88;5023370;28;20041;-74
2022/09/19 05:50:07;;;;;;;6.50;1.40;;;;;;;9.92;89.33;101980.84;5020570;28;20091;-74
2022/09/19 05:55:17;;;;;;;10.95;1.75;;;;;;;9.94;90.17;101989.50;5022648;28;20084;-74
2022/09/19 05:57:50;;;;;;;6.82;1.60;;;;;;;9.99;90.53;101989.75;5022608;28;20458;-74
2022/09/19 06:00:15;;;;;;;9.15;1.80;;;;;;;10.01;90.82;101995.84;5005484;28;20091;-74
2022/09/19 06:02:40;;;;;;;12.02;2.13;;;;;;;9.98;91.46;101987.09;5024150;28;20033;-74
2022/09/19 06:05:06;;;;;;;9.23;1.83;;;;;;;10.04;91.25;102001.13;5023185;28;20187;-71
2022/09/19 06:07:31;;;;;;;6.43;1.63;;;;;;;10.06;91.78;101998.63;5022574;28;20144;-72
2022/09/19 06:09:57;;;;;;;10.52;1.80;;;;;;;10.07;91.97;102001.28;5022150;28;20022;-71
2022/09/19 06:12:22;;;;;;;8.77;1.42;;;;;;;10.08;92.17;102003.03;5022889;28;20077;-71
2022/09/19 06:14:48;;;;;;;9.50;1.63;;;;;;;10.14;91.80;102002.47;5024500;28;20068;-71
2022/09/19 06:17:15;;;;;;;10.65;1.77;;;;;;;10.16;92.22;102001.72;5017256;28;20594;-72
2022/09/19 06:19:41;;;;;;;6.32;1.63;;;;;;;10.20;92.21;102007.91;5019238;28;20479;-71
2022/09/19 06:22:06;;;;;;;9.75;2.00;;;;;;;10.22;92.47;102001.13;5018488;28;20087;-71
2022/09/19 06:24:32;;;;;;;8.85;1.98;;;;;;;10.22;93.37;101998.56;5021462;28;20053;-72
2022/09/19 06:26:57;;;;;;;8.25;1.60;;;;;;;10.33;93.13;102006.81;5018882;28;20033;-72
2022/09/19 06:29:23;;;;;;;13.57;2.10;;;;;;;10.32;92.71;102005.06;5019660;28;20067;-71
2022/09/19 06:31:48;;;;;;;8.18;1.65;;;;;;;10.31;92.55;102006.72;5018161;28;20029;-71
2022/09/19 06:34:14;;;;;;;11.38;1.75;;;;;;;10.36;92.08;102012.09;5021461;28;20037;-71
2022/09/19 06:36:42;;;;;;;9.30;1.88;;;;;;;10.36;92.40;102012.97;5025309;28;20139;-71
2022/09/19 06:39:08;;;;;;;9.35;1.80;;;;;;;10.45;91.82;102018.56;5007349;28;20148;-71
2022/09/19 06:41:34;;;;;;;8.50;1.35;;;;;;;10.49;92.40;102011.84;5023678;28;20124;-71
2022/09/19 06:44:01;;;;;;;14.15;1.85;;;;;;;10.52;92.48;102014.56;5022355;28;20068;-71
2022/09/19 06:46:27;;;;;;;8.80;1.90;;;;;;;10.53;93.20;102018.03;5006021;28;20095;-71
2022/09/19 06:48:52;;;;;;;12.85;1.80;;;;;;;10.58;93.03;102020.00;5023840;28;20083;-70
2022/09/19 06:51:18;;;;;;;8.48;1.88;;;;;;;10.64;92.82;102025.44;5006138;28;20492;-70
2022/09/19 06:53:47;;;;;;;10.98;1.95;;;;;;;10.73;93.04;102030.09;5022839;28;21399;-70
2022/09/19 06:56:12;;;;;;;14.18;1.90;;;;;;;10.81;93.06;102028.78;5025768;28;20048;-70
2022/09/19 06:58:38;;;;;;;13.80;2.08;;;;;;;10.86;93.26;102027.31;5023612;28;20037;-70
2022/09/19 07:01:03;;;;;;;12.93;1.85;;;;;;;10.96;93.20;102041.47;5024134;28;20041;-70
2022/09/19 07:03:28;;;;;;;12.55;1.80;;;;;;;11.08;93.39;102039.44;5023803;28;20029;-70
2022/09/19 07:05:59;;;;;;;12.52;1.70;;;;;;;11.19;92.61;102055.34;5028100;28;20507;-70
2022/09/19 07:08:25;;;;;;;15.52;2.35;;;;;;;11.22;93.74;102047.75;5023674;28;20072;-70
2022/09/19 07:10:50;;;;;;;10.02;2.53;;;;;;;11.23;92.78;102058.16;5028691;28;20487;-70
2022/09/19 07:13:19;;;;;;;10.07;2.05;;;;;;;11.29;92.49;102065.25;5022555;28;20084;-70
2022/09/19 07:15:45;;;;;;;11.98;2.15;;;;;;;11.32;93.26;102056.78;5023412;28;20037;-69
2022/09/19 07:18:12;;;;;;;12.48;1.92;;;;;;;11.30;92.80;102058.41;5022241;28;20068;-69
2022/09/19 07:20:38;;;;;;;13.82;2.33;;;;;;;11.35;93.59;102065.53;5027114;28;20087;-69
2022/09/19 07:23:18;;;;;;;11.15;1.95;;;;;;;11.42;95.61;102069.25;5022568;28;20036;-70
2022/09/19 07:25:45;;;;;;;10.18;2.17;;;;;;;11.42;95.16;102072.72;5026531;28;20085;-71
2022/09/19 07:28:14;;;;;;;8.98;1.70;;;;;;;11.45;93.86;102075.41;5026251;28;20022;-71
2022/09/19 07:30:43;;;;;;;10.45;1.75;;;;;;;11.48;95.27;102078.13;5029168;28;20487;-71
2022/09/19 07:33:10;;;;;;;10.52;1.80;;;;;;;11.50;95.66;102073.91;5027772;28;20037;-71
2022/09/19 07:35:37;;;;;;;9.23;1.58;;;;;;;11.55;95.15;102074.13;5029812;28;20194;-71
2022/09/19 07:38:04;;;;;;;8.82;1.60;;;;;;;11.59;96.19;102076.03;5029525;28;20026;-71
2022/09/19 07:40:33;;;;;;;10.30;1.70;;;;;;;11.64;94.99;102078.78;5028178;28;20041;-71
2022/09/19 07:43:02;;;;;;;13.63;1.80;;;;;;;11.69;94.18;102069.56;5030489;28;20030;-71
2022/09/19 07:45:29;;;;;;;10.30;1.75;;;;;;;11.71;94.56;102073.97;5026229;28;20112;-71
2022/09/19 07:47:55;;;;;;;8.90;1.67;;;;;;;11.75;93.82;102070.69;5011864;28;20108;-71
2022/09/19 07:50:21;;;;;;;8.60;1.55;;;;;;;11.82;94.95;102082.16;5029531;28;20084;-71
2022/09/19 07:52:46;;;;;;;11.48;1.63;;;;;;;11.89;93.79;102080.72;5031390;28;20025;-71
2022/09/19 07:55:14;;;;;;;11.48;1.45;;;;;;;11.91;94.85;102080.00;5007426;28;20049;-71
2022/09/19 07:57:50;;;;;;;8.30;1.60;;;;;;;11.99;94.34;102085.47;5026225;28;20036;-70
2022/09/19 08:00:15;;;;;;;11.43;1.55;;;;;;;12.02;95.75;102085.59;5029416;28;20392;-71
2022/09/19 08:02:41;;;;;;;10.45;1.63;;;;;;;12.03;94.83;102090.81;5030782;28;20503;-71
2022/09/19 08:05:06;;;;;;;12.23;2.00;;;;;;;12.08;94.81;102101.34;5013067;28;20048;-71
2022/09/19 08:07:32;;;;;;;12.30;1.92;;;;;;;12.07;93.03;102095.28;5028086;28;20444;-71
2022/09/19 08:09:57;;;;;;;11.70;1.80;;;;;;;12.14;93.51;102104.16;5012348;28;20378;-71
2022/09/19 08:12:22;;;;;;;14.98;1.80;;;;;;;12.18;93.19;102106.03;5029956;28;20061;-71
2022/09/19 08:14:48;;;;;;;9.32;1.63;;;;;;;12.28;93.58;102099.56;5031117;28;20481;-71
2022/09/19 08:17:13;;;;;;;14.32;1.73;;;;;;;12.46;93.62;102102.88;5010159;28;20037;-71
2022/09/19 08:19:39;;;;;;;11.32;1.75;;;;;;;12.54;91.97;102103.19;5009865;28;20464;-70
2022/09/19 08:22:04;;;;;;;13.65;2.20;;;;;;;12.61;91.00;102100.91;5027775;28;20048;-69
2022/09/19 08:24:31;;;;;;;14.50;2.42;;;;;;;12.64;90.73;102104.44;5029338;28;20021;-70
2022/09/19 08:26:58;;;;;;;13.55;2.30;;;;;;;12.68;90.81;102109.78;5012276;28;20033;-70
2022/09/19 08:29:23;;;;;;;10.38;1.70;;;;;;;12.72;90.79;102106.47;5027661;28;20036;-70
2022/09/19 08:31:51;;;;;;;7.95;1.75;;;;;;;12.77;93.14;102115.28;5028589;28;20030;-70
2022/09/19 08:34:16;;;;;;;11.85;2.13;;;;;;;12.83;93.21;102120.69;5028062;28;20021;-70
2022/09/19 08:36:42;;;;;;;9.65;1.40;;;;;;;12.89;93.55;102120.94;5029580;28;20038;-70
2022/09/19 08:39:07;;;;;;;11.95;1.80;;;;;;;13.01;94.77;102129.97;5025161;28;20039;-70
2022/09/19 08:42:18;;;;;;;10.48;2.03;;;;;;;13.14;93.17;102122.72;5027771;28;20041;-70
2022/09/19 08:44:51;;;;;;;9.77;1.88;;;;;;;13.31;92.89;102118.25;5028097;28;20025;-70
2022/09/19 08:47:21;;;;;;;13.50;1.63;;;;;;;13.44;92.30;102121.28;5029522;28;20036;-70
2022/09/19 08:50:13;;;;;;;9.05;1.92;;;;;;;13.59;91.26;102125.31;5028207;28;20025;-70
2022/09/19 08:52:48;;;;;;;14.68;2.38;;;;;;;13.75;92.19;102125.81;4992964;28;20090;-70
2022/09/19 08:55:19;;;;;;;9.52;1.92;;;;;;;13.85;90.85;102118.44;5024134;28;20033;-70
2022/09/19 08:58:19;;;;;;;10.23;1.77;;;;;;;14.00;91.65;102115.50;5030000;28;20063;-70
2022/09/19 09:00:47;;;;;;;15.02;1.70;;;;;;;14.12;86.75;102117.63;4985247;28;20056;-70
2022/09/19 09:03:16;;;;;;;11.75;1.92;;;;;;;14.16;84.74;102112.59;5027352;28;20370;-70
2022/09/19 09:05:43;;;;;;;;;;;;;;;14.27;86.92;102117.25;5030306;28;20013;-69
2022/09/19 09:08:12;;;;;;;8.73;1.88;;;;;;;14.40;85.43;102122.00;5027554;28;20406;-70
2022/09/19 09:10:46;;;;;;;13.63;1.70;;;;;;;14.44;83.22;102113.53;5024842;28;20153;-70
2022/09/19 09:13:18;;;;;;;10.00;1.40;;;;;;;14.56;82.67;102115.63;5011063;28;20049;-69
2022/09/19 09:15:47;;;;;;;11.27;1.45;;;;;;;14.65;80.43;102124.56;5028660;28;20033;-70
2022/09/19 09:18:37;;;;;;;11.57;1.92;;;;;;;14.71;81.42;102114.41;5026253;28;20043;-70
2022/09/19 09:21:29;;;;;;;13.40;1.58;;;;;;;14.80;79.32;102113.78;5025313;28;20076;-69
2022/09/19 09:24:03;;;;;;;13.30;1.65;;;;;;;14.87;77.39;102123.53;5009608;28;20032;-70
2022/09/19 09:26:36;;;;;;;9.93;1.38;;;;;;;14.96;78.56;102110.84;5024886;28;20296;-70
2022/09/19 09:29:12;;;;;;;11.02;1.98;;;;;;;15.07;76.98;102110.28;5029201;28;20021;-70
2022/09/19 09:31:46;;;;;;;10.30;1.75;;;;;;;15.11;74.73;102115.63;5026245;28;20061;-70
2022/09/19 09:34:21;;;;;;;17.60;1.90;;;;;;;15.20;74.53;102110.69;5010945;28;20029;-70
2022/09/19 09:36:59;;;;;;;11.52;1.67;;;;;;;15.22;75.17;102102.94;5028855;28;20499;-70
2022/09/19 09:39:49;;;;;;;9.65;1.50;;;;;;;15.30;76.46;102106.66;5027671;28;20506;-70
2022/09/19 09:42:21;;;;;;;8.73;1.63;;;;;;;15.38;75.71;102110.34;5022411;28;20075;-70
2022/09/19 09:45:14;;;;;;;7.35;1.60;;;;;;;15.41;74.36;102104.34;5028108;28;20052;-70
2022/09/19 09:47:58;;;;;;;9.75;1.65;;;;;;;15.45;74.64;102106.19;5008619;28;20416;-69
2022/09/19 09:50:37;;;;;;;8.25;1.25;;;;;;;15.53;74.97;102110.78;5026287;28;20123;-69
2022/09/19 09:53:21;;;;;;;10.15;1.38;;;;;;;15.60;73.31;102106.63;5025567;28;20025;-69
2022/09/19 09:56:16;;;;;;;10.23;1.55;;;;;;;15.59;73.84;102114.34;5028606;28;20033;-69
2022/09/19 09:58:53;;;;;;;7.95;1.58;;;;;;;15.47;69.98;102112.28;5027365;28;20408;-70
2022/09/19 10:04:53;;;;;;;9.60;1.67;;;;;;;15.31;72.43;102131.75;5023110;28;20408;-69
2022/09/19 10:07:30;;;;;;;9.82;1.40;;;;;;;15.22;70.71;102123.69;5009883;28;20025;-70
2022/09/19 10:10:01;;;;;;;10.73;1.80;;;;;;;15.22;70.46;102123.69;5023866;28;20432;-70
2022/09/19 10:12:41;;;;;;;11.07;1.30;;;;;;;15.40;71.47;102125.94;5021599;28;20042;-69
2022/09/19 10:15:13;;;;;;;12.32;1.52;;;;;;;15.36;70.75;102127.56;5026365;28;20498;-70
2022/09/19 10:17:46;;;;;;;8.57;1.45;;;;;;;15.29;71.91;102130.81;5025128;28;20381;-70
2022/09/19 10:20:35;;;;;;;8.32;1.50;;;;;;;15.26;71.98;102136.78;5024269;28;20412;-70
2022/09/19 10:23:00;;;;;;;10.20;1.10;;;;;;;15.17;71.31;102139.13;5021764;28;20064;-70
2022/09/19 10:25:26;;;;;;;4.88;0.77;;;;;;;15.07;70.66;102149.16;5022385;28;20069;-69
2022/09/19 10:27:52;;;;;;;8.02;1.00;;;;;;;14.97;69.35;102138.50;5025736;28;20052;-70
2022/09/19 10:30:25;;;;;;;6.57;0.98;;;;;;;14.94;70.02;102138.44;5025835;28;20029;-70
2022/09/19 10:32:52;;;;;;;7.93;1.13;;;;;;;14.95;70.44;102147.06;5009961;28;20029;-69
2022/09/19 10:35:28;;;;;;;7.60;1.20;;;;;;;14.94;71.17;102146.19;5026897;28;20029;-69
2022/09/19 10:38:14;;;;;;;9.07;1.38;;;;;;;14.93;71.41;102149.63;5022428;28;20048;-69
2022/09/19 10:41:00;;;;;;;9.43;1.30;;;;;;;14.97;72.26;102138.50;5018845;28;20455;-70
2022/09/19 10:43:51;;;;;;;8.80;1.40;;;;;;;14.99;71.86;102141.16;5026708;28;20030;-70
2022/09/19 10:46:23;;;;;;;10.13;1.50;;;;;;;15.08;71.79;102143.13;5022484;28;20052;-69
2022/09/19 10:48:56;;;;;;;6.60;0.98;;;;;;;15.09;70.71;102132.81;5025260;28;20036;-69
2022/09/19 10:51:27;;;;;;;5.88;1.08;;;;;;;15.10;70.98;102144.06;5023097;28;20485;-70
2022/09/19 10:53:55;;;;;;;9.70;1.10;;;;;;;15.25;69.40;102139.34;5027617;28;20037;-70
2022/09/19 10:56:25;;;;;;;7.38;1.10;;;;;;;15.36;68.35;102137.06;5023441;28;20065;-70
2022/09/19 10:59:10;;;;;;;10.30;2.78;;;;;;;15.38;69.03;102144.03;5023312;28;20033;-70
2022/09/19 11:01:36;;;;;;;8.73;1.60;;;;;;;15.37;68.64;102134.50;5022857;28;20504;-69
2022/09/19 11:04:22;;;;;;;10.95;1.90;;;;;;;15.40;67.67;102136.28;5025881;28;20086;-71
2022/09/19 11:07:04;;;;;;;12.68;1.40;;;;;;;15.44;68.19;102136.44;5020799;28;20037;-70
2022/09/19 11:09:35;;;;;;;13.57;1.25;;;;;;;15.46;68.21;102132.16;5022821;28;20033;-69
2022/09/19 11:12:09;;;;;;;9.15;2.15;;;;;;;15.49;69.10;102140.03;5023817;28;20046;-69
2022/09/19 11:14:35;;;;;;;5.80;1.20;;;;;;;15.48;68.48;102133.09;5026110;28;20040;-69
2022/09/19 11:17:19;;;;;;;10.40;1.30;;;;;;;15.50;69.78;102127.94;5023729;28;20030;-69
2022/09/19 11:19:56;;;;;;;13.52;1.70;;;;;;;15.49;69.04;102134.84;5023515;28;20057;-69
2022/09/19 11:23:18;;;;;;;11.60;1.55;;;;;;;15.54;70.40;102130.69;5024742;28;20033;-69
2022/09/19 11:25:50;;;;;;;12.77;1.30;;;;;;;15.53;69.52;102135.78;4930527;29;20088;-70
2022/09/19 11:28:43;;;;;;;10.68;1.90;;;;;;;15.59;70.88;102132.50;4915508;29;20513;-70
2022/09/19 11:31:17;;;;;;;8.70;1.40;;;;;;;15.70;70.48;102144.97;5011181;28;20076;-70
2022/09/19 11:34:02;;;;;;;9.23;1.38;;;;;;;15.76;69.62;102144.25;5029260;28;20037;-70
2022/09/19 11:36:46;;;;;;;11.02;1.10;;;;;;;15.79;67.37;102141.75;5027109;28;20030;-70
2022/09/19 11:39:33;;;;;;;8.23;1.13;;;;;;;15.85;68.22;102141.91;5029883;28;20503;-70
2022/09/19 11:42:33;;;;;;;11.43;1.90;;;;;;;15.83;67.00;102140.97;5029931;28;20079;-70
2022/09/19 11:45:16;;;;;;;10.25;1.40;;;;;;;15.68;66.34;102140.59;5028990;28;20585;-70
2022/09/19 11:48:05;;;;;;;5.93;1.33;;;;;;;15.57;66.54;102135.94;5013058;28;20029;-70
2022/09/19 11:50:49;;;;;;;10.93;1.63;;;;;;;15.70;67.61;102132.00;5030069;28;20014;-70
2022/09/19 11:53:52;;;;;;;6.45;1.02;;;;;;;16.14;66.68;102134.91;5025679;28;20508;-69
2022/09/19 11:56:46;;;;;;;10.88;1.60;;;;;;;16.78;65.04;102126.06;4930745;29;20034;-70
2022/09/19 11:59:35;;;;;;;9.05;1.50;;;;;;;17.15;64.67;102113.88;4931505;29;20042;-70